West Manchester, Ohio
Current Conditions -  °F | °C
As of 6:35 PM on Saturday 25 Oct 2014 (Local Time) from KVES Reporting Station
Clear Clear  
Wind Chill: 66°   Ceiling: Unl
Heat Index: 66°   Visibility: 10mi
Dew Point: 45°   Wind: 12mph
Humidity: 46%   Direction: 280°W
Pressure: 29.89"   Gusts: 18mph
Location:  39.9°N, 84.63°W
Report Text: KVES 252235Z AUTO 28010G16KT 10SM CLR 19/07 A2989 RMK AO2
Loading
Personal Weather Stations






























Interactive Weather Map New forecast layout! Learn more

10-Day Weather Forecast

Advertisements
Track Severe Weather on mobile